FABL/BFN METAR and TAF weather

Enter ICAO airport designator
Station Type Date Time Source
FABL METAR 2021/10/22 19:00 UTC NOAA

FABL 221900Z AUTO 22005KT 9999 ///////// 15/04 Q1016


Station Type Date Time Source
FABL Decoded METAR 2021/10/22 19:00 UTC NOAA

Bloemfontein, Bloemfontein Airport, South Africa (FABL) 29-06S 026-18E 1400M
Oct 22, 2021 - 03:00 PM EDT / 2021.10.22 1900 UTC
Wind: from the SW (220 degrees) at 6 MPH (5 KT):0
Visibility: greater than 7 mile(s):0
Temperature: 59 F (15 C)
Dew Point: 39 F (4 C)
Relative Humidity: 47%
Pressure (altimeter): 30.00 in. Hg (1016 hPa)
ob: FABL 221900Z AUTO 22005KT 9999 ///////// 15/04 Q1016
cycle: 19

Station Type Date Time Source
FABL TAF 2021/10/22 18:08 UTC NOAA

TAF FABL 221600Z 2218/2318 24010KT CAVOK TX25/2312Z TN14/2304Z
BECMG 2220/2222 VRB03KT
BECMG 2309/2311 28015KT

Example: see airport list